Time;durP1;ratioP1;P1;durP2;ratioP2;P2;SDS_P1;SDS_P2;PMS_P1;PMS_P2;Temp;Humidity;BMP_temperature;BMP_pressure;BME280_temperature;BME280_humidity;BME280_pressure;Samples;Min_cycle;Max_cycle;Signal;HPM_P1;HPM_P2
2023/09/29 01:05:42;;;;;;;;;;;;;;;;;;;;;
2023/09/29 01:25:21;;;;;;;28.67;17.23;;;14.90;99.90;;;;;;6103409;23;20699;-83
2023/09/29 01:29:04;;;;;;;25.43;17.27;;;14.70;99.90;;;;;;5953407;24;20263;-82
2023/09/29 01:37:21;;;;;;;28.17;17.43;;;14.70;99.90;;;;;;5840924;24;20707;-85
2023/09/29 03:36:00;;;;;;;27.60;18.13;;;13.80;99.90;;;;;;6179634;23;20210;-83
2023/09/29 03:38:33;;;;;;;26.20;17.27;;;13.80;99.90;;;;;;6184217;23;20242;-82
2023/09/29 03:41:13;;;;;;;26.63;17.20;;;13.80;99.90;;;;;;6158969;23;20204;-81
2023/09/29 03:43:44;;;;;;;26.97;17.13;;;13.80;99.90;;;;;;6134033;23;20175;-82
2023/09/29 03:46:25;;;;;;;26.30;17.27;;;13.70;99.90;;;;;;6133394;23;20250;-81
2023/09/29 03:48:54;;;;;;;24.80;17.17;;;13.70;99.90;;;;;;6133542;23;20201;-81
2023/09/29 03:51:29;;;;;;;28.33;17.47;;;13.90;99.90;;;;;;6133432;23;20285;-80
2023/09/29 03:53:59;;;;;;;26.07;16.97;;;13.60;99.90;;;;;;6158027;23;20174;-82
2023/09/29 03:57:48;;;;;;;30.20;17.83;;;13.40;99.90;;;;;;6183527;23;20179;-82
2023/09/29 04:06:33;;;;;;;;;;;;;;;;;;;;;
2023/09/29 06:07:03;;;;;;;24.70;16.17;;;14.80;99.90;;;;;;6300594;22;20195;-82
2023/09/29 06:58:11;;;;;;;21.37;13.47;;;16.60;99.90;;;;;;6208060;22;20249;-87
2023/09/29 07:02:20;;;;;;;;;;;;;;;;;;;;;
2023/09/29 07:10:17;;;;;;;19.93;12.43;;;17.00;99.90;;;;;;5833184;24;20190;-81
2023/09/29 07:13:25;;;;;;;18.03;12.33;;;17.20;99.90;;;;;;5721314;24;20221;-83
2023/09/29 07:39:05;;;;;;;;;;;;;;;;;;;;;
2023/09/29 07:42:49;;;;;;;18.33;12.37;;;18.30;99.90;;;;;;6148115;23;20271;-84
2023/09/29 07:46:53;;;;;;;;;;;;;;;;;;;;;
2023/09/29 07:50:39;;;;;;;19.77;11.93;;;18.60;99.90;;;;;;5928034;24;20556;-81
2023/09/29 07:54:20;;;;;;;17.40;11.73;;;18.80;99.90;;;;;;5917226;24;20268;-84
2023/09/29 07:57:59;;;;;;;17.53;11.23;;;19.00;99.90;;;;;;5918101;24;20199;-82
2023/09/29 08:05:39;;;;;;;18.30;11.77;;;19.40;99.90;;;;;;5687989;25;20209;-82
2023/09/29 08:19:49;;;;;;;;;;;;;;;;;;;;;
2023/09/29 08:39:11;;;;;;;20.77;11.90;;;25.40;99.90;;;;;;6201721;23;20373;-82
2023/09/29 08:42:49;;;;;;;;;;;;;;;;;;;;;
2023/09/29 08:45:31;;;;;;;15.35;10.23;;;25.80;99.90;;;;;;6100668;23;20207;-82
2023/09/29 08:48:18;;;;;;;18.83;10.82;;;26.10;99.90;;;;;;6106937;23;20177;-83
2023/09/29 08:54:56;;;;;;;16.45;10.50;;;26.10;99.90;;;;;;5989047;23;20175;-85
2023/09/29 08:58:10;;;;;;;22.65;11.77;;;26.20;99.90;;;;;;5909008;24;20178;-84
2023/09/29 09:02:02;;;;;;;14.52;10.07;;;26.80;99.90;;;;;;5906615;24;20204;-82
2023/09/29 09:23:33;;;;;;;18.25;10.32;;;28.20;99.90;;;;;;6060371;23;20531;-83
2023/09/29 09:27:15;;;;;;;19.27;11.25;;;28.80;99.90;;;;;;6067110;23;20626;-83
2023/09/29 09:31:09;;;;;;;16.88;10.13;;;29.20;99.90;;;;;;5950331;24;20217;-83
2023/09/29 09:34:41;;;;;;;20.58;10.07;;;29.30;99.90;;;;;;5975248;24;20181;-83
2023/09/29 09:37:58;;;;;;;14.40;9.30;;;28.90;99.90;;;;;;5839208;24;20203;-86
2023/09/29 09:41:37;;;;;;;;;;;;;;;;;;;;;
2023/09/29 09:44:34;;;;;;;15.05;9.35;;;29.40;99.90;;;;;;5765775;24;20203;-84
2023/09/29 09:48:12;;;;;;;;;;;;;;;;;;;;;
2023/09/29 09:51:56;;;;;;;14.07;9.48;;;30.30;99.90;;;;;;5737444;25;20276;-82
2023/09/29 09:55:02;;;;;;;11.82;8.52;;;30.80;99.90;;;;;;5662403;25;20185;-84
2023/09/29 09:58:23;;;;;;;16.40;9.95;;;30.80;99.90;;;;;;5663600;25;20192;-83
2023/09/29 10:01:52;;;;;;;16.08;10.35;;;31.30;99.90;;;;;;5085634;28;20295;-81
2023/09/29 10:05:10;;;;;;;56.75;44.80;;;31.20;99.90;;;;;;5053066;28;20217;-82
2023/09/29 10:08:42;;;;;;;12.50;8.75;;;31.20;99.90;;;;;;4932819;29;20235;-86
2023/09/29 10:12:13;;;;;;;15.23;9.90;;;31.30;98.20;;;;;;4877695;29;20573;-84
2023/09/29 10:15:16;;;;;;;17.98;13.93;;;30.70;98.20;;;;;;4874421;29;20207;-85
2023/09/29 10:19:06;;;;;;;15.43;8.70;;;31.20;97.30;;;;;;4870685;29;20219;-84
2023/09/29 10:22:34;;;;;;;18.00;8.63;;;31.70;96.60;;;;;;4787840;29;20755;-84
2023/09/29 10:26:23;;;;;;;21.77;10.40;;;32.10;94.90;;;;;;4828070;29;20210;-85
2023/09/29 10:29:37;;;;;;;15.93;7.75;;;32.50;94.00;;;;;;4822552;29;20205;-84
2023/09/29 10:36:06;;;;;;;21.30;11.55;;;32.60;93.40;;;;;;4831565;29;20218;-84
2023/09/29 10:39:30;;;;;;;12.05;7.65;;;33.10;92.70;;;;;;4857259;29;20208;-85
2023/09/29 10:42:54;;;;;;;17.02;11.85;;;33.00;90.40;;;;;;4812429;29;20214;-83
2023/09/29 10:50:23;;;;;;;14.45;9.55;;;32.80;89.00;;;;;;4740788;30;20202;-83
2023/09/29 10:53:09;;;;;;;13.82;7.15;;;32.80;89.40;;;;;;4726993;30;20289;-83
2023/09/29 10:56:49;;;;;;;12.75;7.60;;;32.80;88.40;;;;;;4704864;30;20203;-84
2023/09/29 11:00:24;;;;;;;11.45;7.05;;;32.90;86.20;;;;;;4742535;30;20237;-83
2023/09/29 14:02:25;;;;;;;;;;;;;;;;;;;;;
2023/09/29 14:25:47;;;;;;;;;;;;;;;;;;;;;
2023/09/29 14:40:53;;;;;;;9.07;5.40;;;25.60;77.90;;;;;;4718757;30;20242;-83
2023/09/29 15:08:21;;;;;;;;;;;;;;;;;;;;;
2023/09/29 15:12:05;;;;;;;9.93;5.80;;;25.00;84.30;;;;;;4805107;29;20221;-83
2023/09/29 15:15:20;;;;;;;9.30;5.60;;;24.80;83.30;;;;;;4783296;29;20230;-81
2023/09/29 15:19:24;;;;;;;9.68;5.88;;;24.80;83.30;;;;;;4764695;30;20311;-83
2023/09/29 15:24:04;;;;;;;;;;;;;;;;;;;;;
2023/09/29 15:28:14;;;;;;;;;;;;;;;;;;;;;
2023/09/29 15:35:29;;;;;;;;;;;;;;;;;;;;;
2023/09/29 15:38:23;;;;;;;10.77;5.70;;;24.30;85.60;;;;;;4666578;30;20203;-81
2023/09/29 15:41:46;;;;;;;9.00;5.85;;;24.30;86.70;;;;;;4659592;30;20276;-82
2023/09/29 15:45:20;;;;;;;19.48;6.70;;;24.20;86.60;;;;;;4639833;30;20205;-84
2023/09/29 16:08:47;;;;;;;13.18;6.32;;;23.70;90.10;;;;;;5155657;22;20273;-83
2023/09/29 16:12:56;;;;;;;12.07;6.10;;;23.60;90.90;;;;;;4945379;29;20297;-83
2023/09/29 16:17:27;;;;;;;;;;;;;;;;;;;;;
2023/09/29 16:25:00;;;;;;;13.13;6.30;;;23.10;91.80;;;;;;4965864;28;20545;-81
2023/09/29 16:27:46;;;;;;;9.70;6.20;;;23.10;92.20;;;;;;4987751;28;20251;-81
2023/09/29 16:33:14;;;;;;;8.93;6.07;;;22.80;92.40;;;;;;4931777;29;20642;-80
2023/09/29 16:35:42;;;;;;;11.83;7.30;;;22.70;93.10;;;;;;4931098;29;20229;-81
2023/09/29 16:38:15;;;;;;;9.63;6.43;;;22.70;93.00;;;;;;4947919;29;20740;-83
2023/09/29 16:40:58;;;;;;;10.57;6.20;;;22.60;93.20;;;;;;4918652;29;20199;-82
2023/09/29 16:43:28;;;;;;;13.67;6.70;;;22.50;93.70;;;;;;4932539;29;20290;-81
2023/09/29 16:45:57;;;;;;;11.83;6.80;;;22.50;93.80;;;;;;4916428;29;20583;-81
2023/09/29 16:48:26;;;;;;;11.67;6.60;;;22.40;93.80;;;;;;4931628;29;20213;-83
2023/09/29 16:51:04;;;;;;;10.17;6.53;;;22.30;94.10;;;;;;4931906;29;20222;-83
2023/09/29 16:53:38;;;;;;;10.43;6.40;;;22.30;94.40;;;;;;4931757;29;20261;-81
2023/09/29 16:56:11;;;;;;;9.83;6.50;;;22.20;94.40;;;;;;4920462;29;20706;-81
2023/09/29 16:58:48;;;;;;;11.00;6.80;;;22.10;94.30;;;;;;4919486;29;20202;-81
2023/09/29 17:01:26;;;;;;;13.13;7.00;;;22.20;94.70;;;;;;4919046;29;20222;-83
2023/09/29 17:03:57;;;;;;;9.93;6.90;;;22.10;95.30;;;;;;4935413;29;20301;-81
2023/09/29 17:09:35;;;;;;;12.03;6.50;;;22.00;95.40;;;;;;4899015;29;20326;-84
2023/09/29 17:12:07;;;;;;;13.27;7.17;;;22.10;95.80;;;;;;4901306;29;20560;-81
2023/09/29 17:14:39;;;;;;;12.63;7.10;;;21.90;95.90;;;;;;4901421;29;20210;-81
2023/09/29 17:17:11;;;;;;;12.80;6.80;;;21.90;96.00;;;;;;4901305;29;20275;-82
2023/09/29 17:19:43;;;;;;;14.40;7.90;;;21.80;97.00;;;;;;4901287;29;20195;-82
2023/09/29 17:22:20;;;;;;;11.07;6.80;;;21.80;96.80;;;;;;4901335;29;20621;-82
2023/09/29 17:24:50;;;;;;;14.87;7.20;;;21.80;97.00;;;;;;4917549;29;20203;-82
2023/09/29 17:27:20;;;;;;;17.23;8.47;;;21.70;96.80;;;;;;4901594;29;20234;-81
2023/09/29 17:29:55;;;;;;;13.53;7.23;;;21.70;97.20;;;;;;4902358;29;20195;-82
2023/09/29 17:32:29;;;;;;;11.50;7.13;;;21.60;97.40;;;;;;4885381;29;20211;-83
2023/09/29 17:35:00;;;;;;;13.10;7.23;;;21.60;97.40;;;;;;4901430;29;20227;-82
2023/09/29 17:37:30;;;;;;;11.57;7.33;;;21.50;97.60;;;;;;4900134;29;20558;-80
2023/09/29 17:40:18;;;;;;;12.10;7.37;;;21.30;97.90;;;;;;4917253;29;20199;-82
2023/09/29 17:42:46;;;;;;;12.03;7.47;;;21.40;98.20;;;;;;4901003;29;20206;-82
2023/09/29 17:45:17;;;;;;;13.27;7.90;;;21.40;98.60;;;;;;4901568;29;20333;-81
2023/09/29 17:47:50;;;;;;;11.70;7.67;;;21.30;98.60;;;;;;4918337;29;20235;-83
2023/09/29 17:50:18;;;;;;;14.37;8.10;;;21.30;98.60;;;;;;4917191;29;20194;-80
2023/09/29 17:52:59;;;;;;;12.60;7.40;;;21.30;99.40;;;;;;4911605;29;20672;-82
2023/09/29 17:55:38;;;;;;;16.87;8.20;;;21.20;99.20;;;;;;4915583;29;20234;-83
2023/09/29 17:58:07;;;;;;;24.23;10.33;;;21.20;99.50;;;;;;4916975;29;20283;-81
2023/09/29 18:00:47;;;;;;;13.97;8.17;;;21.10;99.90;;;;;;4912176;29;20192;-80
2023/09/29 18:03:16;;;;;;;16.27;9.03;;;21.00;99.90;;;;;;4896598;29;20204;-80
2023/09/29 18:05:49;;;;;;;16.73;8.87;;;20.90;99.90;;;;;;4896828;29;20224;-84
2023/09/29 18:08:20;;;;;;;16.33;8.83;;;20.90;99.90;;;;;;4886597;29;20235;-83
2023/09/29 18:10:48;;;;;;;14.87;8.53;;;20.90;99.90;;;;;;4897149;29;20548;-83
2023/09/29 18:13:25;;;;;;;15.60;8.90;;;20.90;99.90;;;;;;4881798;29;20652;-84
2023/09/29 18:16:10;;;;;;;15.93;9.23;;;20.90;99.90;;;;;;4881913;29;20422;-82
2023/09/29 18:18:38;;;;;;;14.80;8.63;;;20.80;99.90;;;;;;4896613;29;20208;-80
2023/09/29 18:21:10;;;;;;;13.60;8.20;;;20.80;99.90;;;;;;4911116;29;20247;-85
2023/09/29 18:23:48;;;;;;;12.93;8.30;;;20.70;99.90;;;;;;4897750;29;20207;-84
2023/09/29 18:26:22;;;;;;;15.17;8.97;;;20.70;99.90;;;;;;4880695;29;20247;-84
2023/09/29 18:28:57;;;;;;;13.03;8.30;;;20.70;99.90;;;;;;4896015;29;20192;-83
2023/09/29 18:31:28;;;;;;;18.47;9.30;;;20.60;99.90;;;;;;4896253;29;20287;-82
2023/09/29 18:34:04;;;;;;;13.43;8.80;;;20.70;99.90;;;;;;4910627;29;20191;-84
2023/09/29 18:40:20;;;;;;;18.43;8.73;;;20.50;99.90;;;;;;4877886;29;20323;-85
2023/09/29 18:44:07;;;;;;;;;;;;;;;;;;;;;
2023/09/29 18:48:20;;;;;;;15.10;8.53;;;20.50;99.90;;;;;;4704510;30;20325;-85
2023/09/29 18:51:09;;;;;;;14.03;8.90;;;20.40;99.90;;;;;;4645480;30;20257;-80
2023/09/29 19:41:44;;;;;;;14.10;9.13;;;20.10;99.90;;;;;;5065496;23;25057866;-79
2023/09/29 19:49:06;;;;;;;15.20;9.80;;;19.80;99.90;;;;;;6091245;23;20633;-80
2023/09/29 19:51:56;;;;;;;20.07;10.20;;;20.00;99.90;;;;;;6071584;23;20609;-81
2023/09/29 20:11:08;;;;;;;17.40;9.63;;;19.80;99.90;;;;;;5960661;24;20159;-80
2023/09/29 20:14:21;;;;;;;15.87;9.37;;;19.70;99.90;;;;;;5873787;24;20201;-80
2023/09/29 20:17:17;;;;;;;15.00;9.63;;;19.60;99.90;;;;;;5924651;24;20173;-81
2023/09/29 20:40:13;;;;;;;;;;;;;;;;;;;;;
2023/09/29 20:43:00;;;;;;;15.60;9.83;;;19.20;99.90;;;;;;6047460;23;20177;-81
2023/09/29 21:13:43;;;;;;;18.90;10.70;;;18.70;99.90;;;;;;6044229;23;20352;-83
2023/09/29 21:17:40;;;;;;;16.00;10.57;;;18.60;99.90;;;;;;6032601;23;20592;-82
2023/09/29 21:20:36;;;;;;;18.27;10.20;;;18.60;99.90;;;;;;5921046;24;20573;-83
2023/09/29 21:27:03;;;;;;;16.53;10.30;;;18.50;99.90;;;;;;5959714;24;20615;-81
2023/09/29 21:29:51;;;;;;;17.67;10.70;;;18.50;99.90;;;;;;5939902;24;20609;-82
2023/09/29 21:32:52;;;;;;;19.33;10.60;;;18.50;99.90;;;;;;5961302;24;20190;-79
2023/09/29 21:35:59;;;;;;;23.17;11.50;;;18.40;99.90;;;;;;5962493;24;20267;-81
2023/09/29 21:38:38;;;;;;;17.27;10.03;;;18.40;99.90;;;;;;5963425;24;20278;-82
2023/09/29 21:41:21;;;;;;;16.03;10.07;;;18.40;99.90;;;;;;5960902;24;20176;-81
2023/09/29 21:43:54;;;;;;;17.53;9.73;;;18.30;99.90;;;;;;6019484;23;20200;-80
2023/09/29 21:46:34;;;;;;;17.83;10.37;;;18.40;99.90;;;;;;6050278;23;20233;-90
2023/09/29 21:49:12;;;;;;;14.90;9.97;;;18.30;99.90;;;;;;6030882;23;20177;-88
2023/09/29 21:51:40;;;;;;;14.57;9.97;;;18.40;99.90;;;;;;6074224;23;20189;-79
2023/09/29 21:54:11;;;;;;;16.87;9.93;;;18.30;99.90;;;;;;6074168;23;20182;-89
2023/09/29 21:56:39;;;;;;;26.03;11.70;;;18.30;99.90;;;;;;6124839;23;20629;-79
2023/09/29 21:59:11;;;;;;;18.90;10.10;;;18.30;99.90;;;;;;6134953;23;20188;-79
2023/09/29 22:01:44;;;;;;;19.10;10.40;;;18.30;99.90;;;;;;6162890;23;20543;-79
2023/09/29 22:04:14;;;;;;;18.23;10.57;;;18.30;99.90;;;;;;6161726;23;20163;-79
2023/09/29 22:06:44;;;;;;;17.97;10.27;;;18.30;99.90;;;;;;6161904;23;20184;-79
2023/09/29 22:09:13;;;;;;;16.53;10.40;;;18.30;99.90;;;;;;6161701;23;20675;-79
2023/09/29 22:11:52;;;;;;;16.97;10.20;;;18.30;99.90;;;;;;6129274;23;20196;-80
2023/09/29 22:14:21;;;;;;;19.63;10.70;;;18.20;99.90;;;;;;6158236;23;20178;-89
2023/09/29 22:16:49;;;;;;;17.93;10.50;;;18.20;99.90;;;;;;6158432;23;20491;-79
2023/09/29 22:19:20;;;;;;;16.80;10.40;;;18.10;99.90;;;;;;6155660;23;20196;-78
2023/09/29 22:21:48;;;;;;;20.13;10.50;;;18.10;99.90;;;;;;6128991;23;20191;-88
2023/09/29 22:24:18;;;;;;;15.87;10.70;;;18.10;99.90;;;;;;6159978;23;20164;-79
2023/09/29 22:26:49;;;;;;;17.20;10.60;;;18.00;99.90;;;;;;6128015;23;20168;-79
2023/09/29 22:29:17;;;;;;;17.33;10.37;;;18.00;99.90;;;;;;6156169;23;20613;-88
2023/09/29 22:31:50;;;;;;;16.10;10.57;;;17.90;99.90;;;;;;6155300;23;20168;-78
2023/09/29 22:34:20;;;;;;;17.97;10.90;;;17.90;99.90;;;;;;6154838;23;20187;-80
2023/09/29 22:36:51;;;;;;;17.03;10.90;;;17.90;99.90;;;;;;6153931;23;20188;-79
2023/09/29 22:39:21;;;;;;;18.50;10.70;;;17.90;99.90;;;;;;6155431;23;20207;-80
2023/09/29 22:41:59;;;;;;;17.27;10.53;;;17.90;99.90;;;;;;6155546;23;20163;-81
2023/09/29 22:44:28;;;;;;;20.03;10.20;;;17.90;99.90;;;;;;6155014;23;20343;-80
2023/09/29 22:47:02;;;;;;;16.57;10.53;;;17.90;99.90;;;;;;6154541;23;20172;-81
2023/09/29 22:49:30;;;;;;;16.40;10.20;;;17.80;99.90;;;;;;6154445;23;20176;-81
2023/09/29 22:52:05;;;;;;;18.87;10.77;;;17.90;99.90;;;;;;6131015;23;20196;-81
2023/09/29 22:54:36;;;;;;;15.93;10.27;;;18.00;99.90;;;;;;6128712;23;20195;-80
2023/09/29 22:57:11;;;;;;;18.50;10.50;;;17.90;99.90;;;;;;6153289;23;20233;-80
2023/09/29 22:59:38;;;;;;;18.17;10.20;;;17.90;99.90;;;;;;6128290;23;20177;-80
2023/09/29 23:02:08;;;;;;;15.57;9.97;;;17.90;99.90;;;;;;6155994;23;20650;-80
2023/09/29 23:04:40;;;;;;;19.00;10.07;;;17.90;99.90;;;;;;6156034;23;20498;-89
2023/09/29 23:07:09;;;;;;;22.13;10.77;;;17.90;99.90;;;;;;6131718;23;20192;-89
2023/09/29 23:09:40;;;;;;;21.33;11.33;;;17.90;99.90;;;;;;6131770;23;20203;-85
2023/09/29 23:12:09;;;;;;;17.47;9.70;;;17.90;99.90;;;;;;6157256;23;20603;-90
2023/09/29 23:14:39;;;;;;;16.57;10.07;;;17.80;99.90;;;;;;6157509;23;20156;-81
2023/09/29 23:17:13;;;;;;;18.10;10.43;;;17.90;99.90;;;;;;6128796;23;20416;-81
2023/09/29 23:19:44;;;;;;;14.13;9.43;;;17.90;99.90;;;;;;6128540;23;20251;-79
2023/09/29 23:22:14;;;;;;;16.27;10.03;;;17.90;99.90;;;;;;6153511;23;20192;-80
2023/09/29 23:24:47;;;;;;;18.93;10.37;;;17.80;99.90;;;;;;6155094;23;20156;-80
2023/09/29 23:27:25;;;;;;;18.40;10.80;;;17.80;99.90;;;;;;6153770;23;20178;-79
2023/09/29 23:29:57;;;;;;;18.00;10.23;;;17.90;99.90;;;;;;6154341;23;20227;-88
2023/09/29 23:32:27;;;;;;;20.10;10.03;;;17.80;99.90;;;;;;6154611;23;20231;-79
2023/09/29 23:35:02;;;;;;;18.53;9.80;;;17.80;99.90;;;;;;6154371;23;20168;-88
2023/09/29 23:37:32;;;;;;;18.37;10.47;;;17.80;99.90;;;;;;6155421;23;20183;-81
2023/09/29 23:40:00;;;;;;;19.07;9.70;;;17.80;99.90;;;;;;6128880;23;20180;-89
2023/09/29 23:42:31;;;;;;;17.80;10.10;;;17.70;99.90;;;;;;6129247;23;20183;-80
2023/09/29 23:45:02;;;;;;;18.50;10.20;;;17.70;99.90;;;;;;6128160;23;20164;-81
2023/09/29 23:47:35;;;;;;;20.07;10.07;;;17.70;99.90;;;;;;6154674;23;20288;-87
2023/09/29 23:50:08;;;;;;;15.87;9.93;;;17.70;99.90;;;;;;6129407;23;20176;-88
2023/09/29 23:52:46;;;;;;;19.30;10.00;;;17.70;99.90;;;;;;6155508;23;20184;-78
2023/09/29 23:55:20;;;;;;;17.67;9.77;;;17.60;99.90;;;;;;6127697;23;20172;-89
2023/09/29 23:57:48;;;;;;;16.07;9.33;;;17.60;99.90;;;;;;6158448;23;20184;-88
